createdAt,value
2017-10-17T00:00:25.542Z,0
2017-10-17T00:01:06.007Z,0
2017-10-17T00:01:46.436Z,0
2017-10-17T00:02:26.888Z,0
2017-10-17T00:03:07.369Z,0
2017-10-17T00:05:40.460Z,0
2017-10-17T00:06:20.897Z,0
2017-10-17T00:07:01.426Z,0
2017-10-17T00:07:41.925Z,0
2017-10-17T00:08:22.416Z,0
2017-10-17T00:09:02.817Z,0
2017-10-17T00:09:43.274Z,0
2017-10-17T00:10:23.670Z,0
2017-10-17T00:11:04.190Z,0
2017-10-17T00:11:44.688Z,0
2017-10-17T00:12:25.177Z,0
2017-10-17T00:13:05.624Z,0
2017-10-17T00:13:46.112Z,0
2017-10-17T00:14:26.530Z,0
2017-10-17T00:15:07.003Z,0
2017-10-17T00:15:47.463Z,0
2017-10-17T00:16:27.999Z,0
2017-10-17T00:17:08.421Z,0
2017-10-17T00:17:48.807Z,0
2017-10-17T00:18:29.308Z,0
2017-10-17T00:19:09.792Z,0
2017-10-17T00:19:50.391Z,0
2017-10-17T00:20:30.881Z,0
2017-10-17T00:21:11.332Z,0
2017-10-17T00:21:51.784Z,0
2017-10-17T00:22:32.248Z,0
2017-10-17T00:23:12.774Z,0
2017-10-17T00:23:53.219Z,0
2017-10-17T00:24:33.674Z,0
2017-10-17T00:25:14.158Z,0
2017-10-17T00:25:54.676Z,0
2017-10-17T00:26:35.176Z,0
2017-10-17T00:27:15.646Z,0
2017-10-17T00:27:56.199Z,0
2017-10-17T00:28:36.660Z,0
2017-10-17T00:29:17.141Z,0
2017-10-17T00:29:57.577Z,0
2017-10-17T00:30:38.031Z,0
2017-10-17T00:31:18.507Z,0
2017-10-17T00:31:58.946Z,0
2017-10-17T00:32:39.415Z,0
2017-10-17T00:33:19.904Z,0
2017-10-17T00:34:00.419Z,0
2017-10-17T00:34:40.953Z,0
2017-10-17T00:35:21.380Z,0
2017-10-17T00:36:01.879Z,0
2017-10-17T00:36:42.315Z,0
2017-10-17T00:37:22.789Z,0
2017-10-17T00:38:03.249Z,0
2017-10-17T00:38:43.722Z,0
2017-10-17T00:39:24.172Z,0
2017-10-17T00:40:04.611Z,0
2017-10-17T00:40:45.090Z,0
2017-10-17T00:41:25.540Z,0
2017-10-17T00:42:06.007Z,0
2017-10-17T00:42:46.364Z,0
2017-10-17T00:43:26.785Z,0
2017-10-17T00:44:07.238Z,0
2017-10-17T00:46:21.080Z,0
2017-10-17T00:47:01.611Z,0
2017-10-17T00:47:42.031Z,0
2017-10-17T00:48:22.462Z,0
2017-10-17T00:49:02.936Z,0
2017-10-17T00:49:43.373Z,0
2017-10-17T00:50:24.050Z,0
2017-10-17T00:51:04.488Z,0
2017-10-17T00:51:44.931Z,0
2017-10-17T00:52:25.433Z,0
2017-10-17T00:53:05.923Z,0
2017-10-17T00:53:46.372Z,0
2017-10-17T00:54:26.787Z,0
2017-10-17T00:55:07.242Z,0
2017-10-17T00:55:47.682Z,0
2017-10-17T00:56:28.147Z,0
2017-10-17T00:57:08.477Z,0
2017-10-17T00:57:48.958Z,0
2017-10-17T00:58:29.470Z,0
2017-10-17T00:59:10.028Z,0
2017-10-17T00:59:50.534Z,0
2017-10-17T01:00:31.020Z,0
2017-10-17T01:01:11.446Z,0
2017-10-17T01:01:51.852Z,0
2017-10-17T01:02:32.426Z,0
2017-10-17T01:03:12.799Z,0
2017-10-17T01:03:53.220Z,0
2017-10-17T01:04:33.644Z,0
2017-10-17T01:05:14.066Z,0
2017-10-17T01:05:54.445Z,0
2017-10-17T01:06:34.931Z,0
2017-10-17T01:07:15.378Z,0
2017-10-17T01:07:55.706Z,0
2017-10-17T01:08:36.146Z,0
2017-10-17T01:09:16.566Z,0
2017-10-17T01:09:57.015Z,0
2017-10-17T01:10:37.447Z,0
2017-10-17T01:11:17.921Z,0
2017-10-17T01:11:58.313Z,0
2017-10-17T01:12:38.749Z,0
2017-10-17T01:13:19.137Z,0
2017-10-17T01:13:59.598Z,0
2017-10-17T01:14:39.996Z,0
2017-10-17T01:15:20.555Z,0
2017-10-17T01:16:01.028Z,0
2017-10-17T01:16:41.541Z,0
2017-10-17T01:17:22.063Z,0
2017-10-17T01:18:02.517Z,0
2017-10-17T01:18:42.961Z,0
2017-10-17T01:19:23.394Z,0
2017-10-17T01:20:03.823Z,0
2017-10-17T01:20:44.198Z,0
2017-10-17T01:21:24.612Z,0
2017-10-17T01:22:05.121Z,0
2017-10-17T01:22:45.535Z,0
2017-10-17T01:23:26.023Z,0
2017-10-17T01:24:06.483Z,0
2017-10-17T01:24:46.896Z,0
2017-10-17T01:25:27.433Z,0
2017-10-17T01:26:07.850Z,0
2017-10-17T01:26:48.211Z,0
2017-10-17T01:27:28.727Z,0
2017-10-17T01:28:09.177Z,0
2017-10-17T01:28:49.627Z,0
2017-10-17T01:29:30.062Z,0
2017-10-17T01:30:10.564Z,0
2017-10-17T01:30:50.979Z,0
2017-10-17T01:31:31.439Z,0
2017-10-17T01:32:11.891Z,0
2017-10-17T01:32:52.384Z,0
2017-10-17T01:33:32.821Z,0
2017-10-17T01:34:13.261Z,0
2017-10-17T01:34:53.710Z,0
2017-10-17T01:35:34.196Z,0
2017-10-17T01:36:14.643Z,0
2017-10-17T01:36:55.103Z,0
2017-10-17T01:37:35.626Z,0
2017-10-17T01:38:16.132Z,0
2017-10-17T01:38:56.635Z,0
2017-10-17T01:39:37.095Z,0
2017-10-17T01:40:17.690Z,0
2017-10-17T01:40:58.154Z,0
2017-10-17T01:41:38.595Z,0
2017-10-17T01:42:19.009Z,0
2017-10-17T01:42:59.469Z,0
2017-10-17T01:43:39.941Z,0
2017-10-17T01:44:20.388Z,0
2017-10-17T01:45:00.826Z,0
2017-10-17T01:45:41.352Z,0
2017-10-17T01:46:21.926Z,0
2017-10-17T01:47:02.461Z,0
2017-10-17T01:47:42.928Z,0
2017-10-17T01:48:23.426Z,0
2017-10-17T01:49:03.803Z,0
2017-10-17T01:49:44.174Z,0
2017-10-17T01:50:24.599Z,0
2017-10-17T01:51:05.046Z,0
2017-10-17T01:51:45.515Z,0
2017-10-17T01:52:25.937Z,0
2017-10-17T01:53:06.434Z,0
2017-10-17T01:53:47.012Z,0
2017-10-17T01:54:27.431Z,0
2017-10-17T01:55:07.955Z,0
2017-10-17T01:55:48.427Z,0
2017-10-17T01:56:28.858Z,0
2017-10-17T01:57:09.317Z,0
2017-10-17T01:57:49.767Z,0
2017-10-17T01:58:30.210Z,0
2017-10-17T01:59:10.655Z,0
2017-10-17T01:59:51.071Z,0
2017-10-17T02:00:31.521Z,0
2017-10-17T02:01:11.967Z,0
2017-10-17T02:01:52.430Z,0
2017-10-17T02:02:32.933Z,0
2017-10-17T02:03:13.418Z,0
2017-10-17T02:03:53.920Z,0
2017-10-17T02:04:34.408Z,0
2017-10-17T02:05:14.873Z,0
2017-10-17T02:05:55.326Z,0
2017-10-17T02:06:35.744Z,0
2017-10-17T02:07:16.185Z,0
2017-10-17T02:07:56.662Z,0
2017-10-17T02:08:37.139Z,0
2017-10-17T02:09:17.635Z,0
2017-10-17T02:09:58.030Z,0
2017-10-17T02:10:38.439Z,0
2017-10-17T02:11:18.994Z,0
2017-10-17T02:11:59.313Z,0
2017-10-17T02:12:39.779Z,0
2017-10-17T02:13:20.212Z,0
2017-10-17T02:14:00.673Z,0
2017-10-17T02:14:41.070Z,0
2017-10-17T02:15:21.514Z,0
2017-10-17T02:16:02.044Z,0
2017-10-17T02:16:42.473Z,0
2017-10-17T02:17:22.967Z,0
2017-10-17T02:18:03.404Z,0
2017-10-17T02:18:43.825Z,0
2017-10-17T02:19:24.238Z,0
2017-10-17T02:20:04.697Z,0
2017-10-17T02:20:45.107Z,0
2017-10-17T02:21:25.500Z,0
2017-10-17T02:22:05.915Z,0
2017-10-17T02:22:46.360Z,0
2017-10-17T02:23:26.732Z,0
2017-10-17T02:24:07.135Z,0
2017-10-17T02:24:47.607Z,0
2017-10-17T02:25:28.016Z,0
2017-10-17T02:26:09.262Z,0
2017-10-17T02:28:47.440Z,0
2017-10-17T02:29:27.794Z,0
2017-10-17T02:30:08.244Z,0
2017-10-17T02:30:48.742Z,0
2017-10-17T02:31:29.123Z,0
2017-10-17T02:32:09.566Z,0
2017-10-17T02:32:50.056Z,0
2017-10-17T02:33:30.517Z,0
2017-10-17T02:34:11.040Z,0
2017-10-17T02:34:51.565Z,0
2017-10-17T02:35:31.994Z,0
2017-10-17T02:36:12.524Z,0
2017-10-17T02:36:52.987Z,0
2017-10-17T02:37:33.325Z,0
2017-10-17T02:38:13.779Z,0
2017-10-17T02:38:54.292Z,0
2017-10-17T02:39:34.754Z,0
2017-10-17T02:40:15.398Z,0
2017-10-17T02:42:33.229Z,0
2017-10-17T02:43:13.684Z,0
2017-10-17T02:43:54.127Z,0
2017-10-17T02:44:34.551Z,0
2017-10-17T02:45:14.972Z,0
2017-10-17T02:45:55.401Z,0
2017-10-17T02:46:35.840Z,0
2017-10-17T02:47:16.237Z,0
2017-10-17T02:47:56.718Z,0
2017-10-17T02:48:37.091Z,0
2017-10-17T02:49:17.559Z,0
2017-10-17T02:51:35.383Z,0
2017-10-17T02:52:15.860Z,0
2017-10-17T02:52:56.321Z,0
2017-10-17T02:53:36.779Z,0
2017-10-17T02:54:17.231Z,0
2017-10-17T02:54:57.677Z,0
2017-10-17T02:55:38.126Z,0
2017-10-17T02:56:18.573Z,0
2017-10-17T02:56:59.043Z,0
2017-10-17T02:57:39.502Z,0
2017-10-17T02:58:19.957Z,0
2017-10-17T02:59:00.459Z,0
2017-10-17T02:59:40.907Z,0
2017-10-17T03:00:21.364Z,0
2017-10-17T03:01:01.812Z,0
2017-10-17T03:01:42.273Z,0
2017-10-17T03:02:22.721Z,0
2017-10-17T03:03:03.170Z,0
2017-10-17T03:03:43.627Z,0
2017-10-17T03:04:24.087Z,0
2017-10-17T03:05:04.540Z,0
2017-10-17T03:05:44.985Z,0
2017-10-17T03:06:25.444Z,0
2017-10-17T03:07:05.898Z,0
2017-10-17T03:07:46.352Z,0
2017-10-17T03:08:26.806Z,0
2017-10-17T03:09:07.265Z,0
2017-10-17T03:09:47.711Z,0
2017-10-17T03:10:28.165Z,0
2017-10-17T03:11:08.606Z,0
2017-10-17T03:11:49.053Z,0
2017-10-17T03:12:29.506Z,0
2017-10-17T03:13:09.966Z,0
2017-10-17T03:13:50.420Z,0
2017-10-17T03:14:30.878Z,0
2017-10-17T03:15:11.334Z,0
2017-10-17T03:15:51.795Z,0
2017-10-17T03:16:32.247Z,0
2017-10-17T03:17:12.700Z,0
2017-10-17T03:17:53.243Z,0
2017-10-17T03:18:33.691Z,0
2017-10-17T03:19:14.181Z,0
2017-10-17T03:19:54.642Z,0
2017-10-17T03:20:35.095Z,0
2017-10-17T03:21:15.553Z,0
2017-10-17T03:21:55.996Z,0
2017-10-17T03:22:36.451Z,0
2017-10-17T03:23:16.896Z,0
2017-10-17T03:23:57.363Z,0
2017-10-17T03:24:37.804Z,0
2017-10-17T03:25:18.262Z,0
2017-10-17T03:25:58.714Z,0
2017-10-17T03:26:39.176Z,0
2017-10-17T03:27:19.630Z,0
2017-10-17T03:28:00.080Z,0
2017-10-17T03:28:40.549Z,0
2017-10-17T03:29:20.984Z,0
2017-10-17T03:30:01.436Z,0
2017-10-17T03:30:41.889Z,0
2017-10-17T03:31:22.340Z,0
2017-10-17T03:32:02.801Z,0
2017-10-17T03:32:43.252Z,0
2017-10-17T03:33:23.709Z,0
2017-10-17T03:34:04.159Z,0
2017-10-17T03:34:44.605Z,0
2017-10-17T03:35:25.066Z,0
2017-10-17T03:36:05.533Z,0
2017-10-17T03:36:45.988Z,0
2017-10-17T03:37:26.435Z,0
2017-10-17T03:38:06.890Z,0
2017-10-17T03:38:47.336Z,0
2017-10-17T03:39:27.790Z,0
2017-10-17T03:40:08.242Z,0
2017-10-17T03:40:48.703Z,0
2017-10-17T03:41:29.158Z,0
2017-10-17T03:42:09.608Z,0
2017-10-17T03:42:50.071Z,0
2017-10-17T03:43:30.524Z,0
2017-10-17T03:44:10.972Z,0
2017-10-17T03:44:51.417Z,0
2017-10-17T03:45:31.869Z,0
2017-10-17T03:46:12.330Z,0
2017-10-17T03:46:52.779Z,0
2017-10-17T03:47:33.232Z,0
2017-10-17T03:48:13.700Z,0
2017-10-17T03:48:54.151Z,0
2017-10-17T03:49:34.607Z,0
2017-10-17T03:50:15.065Z,0
2017-10-17T03:50:55.525Z,0
2017-10-17T03:51:35.981Z,0
2017-10-17T03:52:16.430Z,0
2017-10-17T03:52:56.882Z,0
2017-10-17T03:53:37.363Z,0
2017-10-17T03:54:17.804Z,0
2017-10-17T03:54:58.260Z,0
2017-10-17T03:55:38.706Z,0
2017-10-17T03:56:19.161Z,0
2017-10-17T03:56:59.605Z,0
2017-10-17T03:57:40.053Z,0
2017-10-17T03:58:20.500Z,0
2017-10-17T03:59:00.948Z,0
2017-10-17T03:59:41.411Z,0
2017-10-17T04:00:21.856Z,0
2017-10-17T04:01:02.298Z,0
2017-10-17T04:01:42.747Z,0
2017-10-17T04:02:23.197Z,0
2017-10-17T04:03:03.642Z,0
2017-10-17T04:03:44.096Z,0
2017-10-17T04:04:24.558Z,0
2017-10-17T04:05:05.015Z,0
2017-10-17T04:05:45.465Z,0
2017-10-17T04:06:25.914Z,0
2017-10-17T04:07:06.361Z,0
2017-10-17T04:07:46.815Z,0
2017-10-17T04:08:27.264Z,0
2017-10-17T04:09:07.703Z,0
2017-10-17T04:09:48.155Z,0
2017-10-17T04:10:28.665Z,0
2017-10-17T04:11:09.123Z,0
2017-10-17T04:11:49.578Z,0
2017-10-17T04:12:30.021Z,0
2017-10-17T04:13:10.478Z,0
2017-10-17T04:13:50.925Z,0
2017-10-17T04:14:31.362Z,0
2017-10-17T04:15:11.815Z,0
2017-10-17T04:15:52.276Z,0
2017-10-17T04:16:32.750Z,0
2017-10-17T04:17:13.189Z,0
2017-10-17T04:17:53.645Z,0
2017-10-17T04:18:34.094Z,0
2017-10-17T04:19:14.539Z,0
2017-10-17T04:19:54.997Z,0
2017-10-17T04:20:35.447Z,0
2017-10-17T04:21:15.903Z,0
2017-10-17T04:21:56.354Z,0
2017-10-17T04:22:36.802Z,0
2017-10-17T04:23:17.261Z,0
2017-10-17T04:23:57.703Z,0
2017-10-17T04:24:38.151Z,0
2017-10-17T04:25:18.598Z,0
2017-10-17T04:25:59.048Z,0
2017-10-17T04:26:39.512Z,0
2017-10-17T04:27:19.969Z,0
2017-10-17T04:28:01.530Z,0
2017-10-17T04:28:41.975Z,0
2017-10-17T04:29:22.444Z,0
2017-10-17T04:30:02.879Z,0
2017-10-17T04:30:43.351Z,0
2017-10-17T04:31:23.771Z,0
2017-10-17T04:32:04.224Z,0
2017-10-17T04:32:44.678Z,0
2017-10-17T04:33:25.136Z,0
2017-10-17T04:34:05.588Z,0
2017-10-17T04:34:46.035Z,0
2017-10-17T04:35:26.488Z,0
2017-10-17T04:36:06.923Z,0
2017-10-17T04:36:47.401Z,0
2017-10-17T04:37:27.859Z,0
2017-10-17T04:38:08.310Z,0
2017-10-17T04:38:48.762Z,0
2017-10-17T04:39:29.220Z,0
2017-10-17T04:40:09.676Z,0
2017-10-17T04:40:50.130Z,0
2017-10-17T04:41:30.581Z,0
2017-10-17T04:42:11.032Z,0
2017-10-17T04:42:51.495Z,0
2017-10-17T04:43:31.951Z,0
2017-10-17T04:44:12.404Z,0
2017-10-17T04:44:52.873Z,0
2017-10-17T04:45:33.316Z,0
2017-10-17T04:46:13.765Z,0
2017-10-17T04:46:54.209Z,0
2017-10-17T04:47:34.662Z,0
2017-10-17T04:48:15.144Z,0
2017-10-17T04:48:55.595Z,0
2017-10-17T04:49:36.052Z,0
2017-10-17T04:50:16.499Z,0
2017-10-17T04:50:56.951Z,0
2017-10-17T04:51:37.408Z,0
2017-10-17T04:52:17.860Z,0
2017-10-17T04:52:58.311Z,0
2017-10-17T04:53:38.763Z,0
2017-10-17T04:54:19.220Z,0
2017-10-17T04:54:59.735Z,0
2017-10-17T04:55:40.176Z,0
2017-10-17T04:56:20.623Z,0
2017-10-17T04:57:01.065Z,0
2017-10-17T04:57:41.521Z,0
2017-10-17T04:58:21.970Z,0
2017-10-17T04:59:02.425Z,0
2017-10-17T04:59:42.878Z,0
2017-10-17T05:00:23.323Z,0
2017-10-17T05:01:03.784Z,0
2017-10-17T05:01:44.249Z,0
2017-10-17T05:02:24.706Z,0
2017-10-17T05:03:05.160Z,0
2017-10-17T05:03:45.606Z,0
2017-10-17T05:04:26.054Z,0
2017-10-17T05:05:06.513Z,0
2017-10-17T05:05:46.960Z,0
2017-10-17T05:06:27.419Z,0
2017-10-17T05:07:07.880Z,0
2017-10-17T05:07:48.346Z,0
2017-10-17T05:08:28.801Z,0
2017-10-17T05:09:09.250Z,0
2017-10-17T05:09:49.710Z,0
2017-10-17T05:10:30.168Z,0
2017-10-17T05:11:10.605Z,0
2017-10-17T05:11:51.073Z,0
2017-10-17T05:12:31.531Z,0
2017-10-17T05:13:11.984Z,0
2017-10-17T05:13:52.439Z,0
2017-10-17T05:14:32.898Z,0
2017-10-17T05:15:13.352Z,0
2017-10-17T05:15:53.798Z,0
2017-10-17T05:16:34.252Z,0
2017-10-17T05:17:14.696Z,0
2017-10-17T05:17:55.135Z,0
2017-10-17T05:18:35.583Z,0
2017-10-17T05:19:16.032Z,0
2017-10-17T05:19:56.473Z,0
2017-10-17T05:20:36.928Z,0
2017-10-17T05:21:17.386Z,0
2017-10-17T05:21:57.843Z,0
2017-10-17T05:22:38.304Z,0
2017-10-17T05:23:18.744Z,0
2017-10-17T05:23:59.202Z,0
2017-10-17T05:24:39.649Z,0
2017-10-17T05:25:20.118Z,0
2017-10-17T05:26:00.559Z,0
2017-10-17T05:26:41.014Z,0
2017-10-17T05:27:21.467Z,0
2017-10-17T05:28:01.923Z,0
2017-10-17T05:28:42.375Z,0
2017-10-17T05:29:22.829Z,0
2017-10-17T05:30:03.277Z,0
2017-10-17T05:30:43.736Z,0
2017-10-17T05:31:24.192Z,0
2017-10-17T05:32:04.639Z,0
2017-10-17T05:32:45.095Z,0
2017-10-17T05:33:25.549Z,0
2017-10-17T05:34:05.997Z,0
2017-10-17T05:34:46.443Z,0
2017-10-17T05:35:26.896Z,0
2017-10-17T05:36:07.343Z,0
2017-10-17T05:36:47.800Z,0
2017-10-17T05:37:28.247Z,0
2017-10-17T05:38:08.695Z,0
2017-10-17T05:38:49.157Z,0
2017-10-17T05:39:29.613Z,0
2017-10-17T05:40:10.065Z,0
2017-10-17T05:40:50.510Z,0
2017-10-17T05:41:30.967Z,0
2017-10-17T05:42:11.418Z,0
2017-10-17T05:42:51.870Z,0
2017-10-17T05:43:32.325Z,0
2017-10-17T05:44:12.785Z,0
2017-10-17T05:44:53.230Z,0
2017-10-17T05:45:33.683Z,0
2017-10-17T05:46:14.145Z,0
2017-10-17T05:46:54.606Z,0
2017-10-17T05:47:35.065Z,0
2017-10-17T05:48:15.524Z,0
2017-10-17T05:48:55.967Z,0
2017-10-17T05:49:36.415Z,0
2017-10-17T05:50:16.871Z,0
2017-10-17T05:50:57.330Z,0
2017-10-17T05:51:37.777Z,0
2017-10-17T05:52:18.228Z,0
2017-10-17T05:52:58.695Z,0
2017-10-17T05:53:39.170Z,0
2017-10-17T05:54:19.624Z,0
2017-10-17T05:55:00.089Z,0
2017-10-17T05:55:40.535Z,0
2017-10-17T05:56:20.990Z,0
2017-10-17T05:57:01.452Z,0
2017-10-17T05:57:41.918Z,0
2017-10-17T05:58:22.358Z,0
2017-10-17T05:59:02.812Z,0
2017-10-17T05:59:43.269Z,0
2017-10-17T06:00:23.716Z,0
2017-10-17T06:01:04.157Z,0
2017-10-17T06:01:44.608Z,0
2017-10-17T06:02:25.064Z,0
2017-10-17T06:03:05.504Z,0
2017-10-17T06:03:45.945Z,0
2017-10-17T06:04:26.417Z,0
2017-10-17T06:05:06.862Z,0
2017-10-17T06:05:47.310Z,0
2017-10-17T06:06:27.764Z,0
2017-10-17T06:07:08.229Z,0
2017-10-17T06:07:48.684Z,0
2017-10-17T06:08:29.137Z,0
2017-10-17T06:09:09.588Z,0
2017-10-17T06:09:50.039Z,0
2017-10-17T06:10:30.493Z,0
2017-10-17T06:11:10.951Z,5
2017-10-17T06:11:51.403Z,5
2017-10-17T06:12:31.853Z,5
2017-10-17T06:13:12.310Z,5
2017-10-17T06:13:52.761Z,5
2017-10-17T06:14:33.239Z,5
2017-10-17T06:15:13.705Z,5
2017-10-17T06:15:54.166Z,5
2017-10-17T06:16:34.610Z,5
2017-10-17T06:17:15.068Z,5
2017-10-17T06:17:55.526Z,5
2017-10-17T06:18:35.983Z,5
2017-10-17T06:19:16.441Z,5
2017-10-17T06:19:56.898Z,5
2017-10-17T06:20:37.351Z,5
2017-10-17T06:21:17.803Z,5
2017-10-17T06:21:58.282Z,5
2017-10-17T06:22:38.740Z,5
2017-10-17T06:23:19.199Z,5
2017-10-17T06:23:59.644Z,5
2017-10-17T06:24:40.106Z,5
2017-10-17T06:25:20.555Z,5
2017-10-17T06:26:01.004Z,5
2017-10-17T06:26:41.468Z,5
2017-10-17T06:27:21.921Z,5
2017-10-17T06:28:02.370Z,5
2017-10-17T06:28:42.828Z,5
2017-10-17T06:29:23.280Z,5
2017-10-17T06:30:03.738Z,10
2017-10-17T06:30:44.192Z,10
2017-10-17T06:31:24.655Z,10
2017-10-17T06:32:05.106Z,10
2017-10-17T06:32:45.560Z,10
2017-10-17T06:33:26.026Z,10
2017-10-17T06:34:06.479Z,10
2017-10-17T06:34:46.935Z,10
2017-10-17T06:35:27.385Z,10
2017-10-17T06:36:07.848Z,10
2017-10-17T06:36:48.302Z,10
2017-10-17T06:37:28.751Z,10
2017-10-17T06:38:09.193Z,10
2017-10-17T06:38:49.654Z,10
2017-10-17T06:39:30.115Z,10
2017-10-17T06:40:10.566Z,10
2017-10-17T06:40:51.026Z,10
2017-10-17T06:41:31.482Z,10
2017-10-17T06:42:11.948Z,10
2017-10-17T06:42:52.400Z,10
2017-10-17T06:43:32.850Z,15
2017-10-17T06:44:13.303Z,15
2017-10-17T06:44:53.749Z,15
2017-10-17T06:45:34.189Z,15
2017-10-17T06:46:14.651Z,15
2017-10-17T06:46:55.099Z,15
2017-10-17T06:47:35.569Z,15
2017-10-17T06:48:16.011Z,15
2017-10-17T06:48:56.465Z,15
2017-10-17T06:49:36.917Z,15
2017-10-17T06:50:17.375Z,15
2017-10-17T06:50:57.832Z,15
2017-10-17T06:51:38.285Z,20
2017-10-17T06:52:18.718Z,20
2017-10-17T06:52:59.173Z,20
2017-10-17T06:53:39.645Z,20
2017-10-17T06:54:20.087Z,20
2017-10-17T06:55:00.542Z,20
2017-10-17T06:55:41.012Z,25
2017-10-17T06:56:21.473Z,25
2017-10-17T06:57:01.927Z,30
2017-10-17T06:57:42.377Z,30
2017-10-17T06:58:22.826Z,30
2017-10-17T06:59:03.279Z,35
2017-10-17T06:59:43.743Z,35
2017-10-17T07:00:24.201Z,40
2017-10-17T07:01:04.662Z,45
2017-10-17T07:01:45.126Z,45
2017-10-17T07:02:25.581Z,50
2017-10-17T07:03:06.029Z,55
2017-10-17T07:03:46.474Z,55
2017-10-17T07:04:26.920Z,60
2017-10-17T07:05:07.361Z,60
2017-10-17T07:05:47.813Z,65
2017-10-17T07:06:28.273Z,70
2017-10-17T07:07:08.726Z,75
2017-10-17T07:07:49.175Z,80
2017-10-17T07:08:29.629Z,85
2017-10-17T07:09:10.107Z,85
2017-10-17T07:09:50.542Z,90
2017-10-17T07:10:30.984Z,90
2017-10-17T07:11:11.441Z,95
2017-10-17T07:11:54.318Z,95
2017-10-17T07:12:34.772Z,95
2017-10-17T07:13:15.227Z,95
2017-10-17T07:13:55.700Z,100
2017-10-17T07:14:36.170Z,100
2017-10-17T07:15:16.618Z,100
2017-10-17T07:15:57.084Z,100
2017-10-17T07:16:37.526Z,100
2017-10-17T07:17:17.976Z,100
2017-10-17T07:17:58.441Z,105
2017-10-17T07:18:38.909Z,105
2017-10-17T07:19:19.436Z,105
2017-10-17T07:19:59.890Z,105
2017-10-17T07:20:40.353Z,110
2017-10-17T07:21:20.813Z,110
2017-10-17T07:22:01.261Z,110
2017-10-17T07:22:41.726Z,110
2017-10-17T07:23:22.186Z,115
2017-10-17T07:24:02.634Z,115
2017-10-17T07:24:43.089Z,115
2017-10-17T07:25:23.544Z,115
2017-10-17T07:26:04.009Z,120
2017-10-17T07:26:44.462Z,120
2017-10-17T07:27:25.119Z,120
2017-10-17T07:28:05.576Z,120
2017-10-17T07:28:46.027Z,120
2017-10-17T07:29:26.482Z,125
2017-10-17T07:30:06.937Z,125
2017-10-17T07:30:47.391Z,125
2017-10-17T07:31:27.844Z,125
2017-10-17T07:32:08.289Z,125
2017-10-17T07:32:48.738Z,125
2017-10-17T07:33:29.191Z,125
2017-10-17T07:34:09.644Z,125
2017-10-17T07:34:50.113Z,130
2017-10-17T07:35:30.559Z,130
2017-10-17T07:36:11.019Z,130
2017-10-17T07:36:51.476Z,135
2017-10-17T07:37:31.920Z,135
2017-10-17T07:38:12.377Z,135
2017-10-17T07:38:52.835Z,135
2017-10-17T07:39:33.286Z,140
2017-10-17T07:40:13.753Z,140
2017-10-17T07:40:54.202Z,140
2017-10-17T07:41:34.664Z,140
2017-10-17T07:42:15.120Z,140
2017-10-17T07:42:55.589Z,140
2017-10-17T07:43:36.038Z,140
2017-10-17T07:44:16.494Z,145
2017-10-17T07:44:56.943Z,150
2017-10-17T07:45:37.404Z,145
2017-10-17T07:46:17.855Z,145
2017-10-17T07:46:58.304Z,150
2017-10-17T07:47:38.764Z,155
2017-10-17T07:48:19.219Z,160
2017-10-17T07:48:59.663Z,155
2017-10-17T07:49:40.108Z,155
2017-10-17T07:50:20.571Z,155
2017-10-17T07:51:01.028Z,155
2017-10-17T07:51:41.455Z,155
2017-10-17T07:52:21.912Z,160
2017-10-17T07:53:02.373Z,160
2017-10-17T07:53:42.823Z,165
2017-10-17T07:54:23.260Z,165
2017-10-17T07:55:03.735Z,165
2017-10-17T07:55:44.193Z,165
2017-10-17T07:56:24.697Z,170
2017-10-17T07:57:05.182Z,170
2017-10-17T07:57:45.642Z,170
2017-10-17T07:58:26.107Z,170
2017-10-17T07:59:06.557Z,170
2017-10-17T07:59:47.006Z,170
2017-10-17T08:00:27.448Z,170
2017-10-17T08:01:07.910Z,170
2017-10-17T08:01:48.383Z,170
2017-10-17T08:02:28.853Z,165
2017-10-17T08:03:09.304Z,165
2017-10-17T08:03:49.765Z,165
2017-10-17T08:04:30.213Z,160
2017-10-17T08:05:10.654Z,165
2017-10-17T08:05:51.113Z,160
2017-10-17T08:06:31.571Z,160
2017-10-17T08:07:11.990Z,165
2017-10-17T08:07:52.452Z,165
2017-10-17T08:08:32.949Z,165
2017-10-17T08:09:13.402Z,165
2017-10-17T08:09:53.848Z,165
2017-10-17T08:10:34.290Z,165
2017-10-17T08:11:14.721Z,165
2017-10-17T08:11:55.741Z,165
2017-10-17T08:12:36.184Z,165
2017-10-17T08:13:16.632Z,165
2017-10-17T08:13:57.086Z,165
2017-10-17T08:14:37.544Z,165
2017-10-17T08:15:17.999Z,170
2017-10-17T08:15:58.452Z,170
2017-10-17T08:16:38.915Z,170
2017-10-17T08:17:19.372Z,170
2017-10-17T08:17:59.836Z,175
2017-10-17T08:18:40.295Z,170
2017-10-17T08:19:20.731Z,170
2017-10-17T08:20:01.196Z,170
2017-10-17T08:20:41.654Z,170
2017-10-17T08:21:22.111Z,170
2017-10-17T08:22:02.572Z,170
2017-10-17T08:22:43.017Z,175
2017-10-17T08:23:23.463Z,175
2017-10-17T08:24:03.916Z,175
2017-10-17T08:24:44.352Z,175
2017-10-17T08:25:24.798Z,175
2017-10-17T08:26:05.248Z,175
2017-10-17T08:26:45.703Z,175
2017-10-17T08:27:26.170Z,175
2017-10-17T08:28:06.609Z,175
2017-10-17T08:28:47.073Z,175
2017-10-17T08:29:27.518Z,175
2017-10-17T08:30:07.982Z,175
2017-10-17T08:30:48.430Z,180
2017-10-17T08:31:28.898Z,180
2017-10-17T08:32:09.357Z,180
2017-10-17T08:32:49.831Z,180
2017-10-17T08:33:30.286Z,180
2017-10-17T08:34:10.739Z,180
2017-10-17T08:34:51.190Z,180
2017-10-17T08:35:31.649Z,180
2017-10-17T08:36:12.102Z,180
2017-10-17T08:36:52.562Z,180
2017-10-17T08:37:33.010Z,180
2017-10-17T08:38:13.465Z,185
2017-10-17T08:38:53.940Z,175
2017-10-17T08:39:34.399Z,180
2017-10-17T08:40:14.854Z,185
2017-10-17T08:40:55.308Z,185
2017-10-17T08:41:35.758Z,185
2017-10-17T08:42:16.223Z,185
2017-10-17T08:42:56.683Z,185
2017-10-17T08:43:37.131Z,185
2017-10-17T08:44:17.603Z,185
2017-10-17T08:44:58.068Z,185
2017-10-17T08:45:38.522Z,190
2017-10-17T08:46:18.962Z,190
2017-10-17T08:46:59.420Z,190
2017-10-17T08:47:39.912Z,190
2017-10-17T08:48:20.367Z,190
2017-10-17T08:49:00.828Z,190
2017-10-17T08:49:41.282Z,190
2017-10-17T08:50:21.736Z,190
2017-10-17T08:51:02.187Z,190
2017-10-17T08:51:42.661Z,190
2017-10-17T08:52:23.114Z,190
2017-10-17T08:53:03.577Z,190
2017-10-17T08:53:44.032Z,190
2017-10-17T08:54:24.490Z,195
2017-10-17T08:55:04.939Z,195
2017-10-17T08:55:45.384Z,195
2017-10-17T08:56:25.832Z,195
2017-10-17T08:57:06.278Z,195
2017-10-17T08:57:46.722Z,195
2017-10-17T08:58:27.175Z,195
2017-10-17T08:59:07.641Z,195
2017-10-17T08:59:48.082Z,195
2017-10-17T09:00:28.525Z,195
2017-10-17T09:01:08.967Z,195
2017-10-17T09:01:49.419Z,195
2017-10-17T09:02:29.882Z,195
2017-10-17T09:03:10.340Z,195
2017-10-17T09:03:50.808Z,195
2017-10-17T09:04:31.260Z,195
2017-10-17T09:05:11.716Z,195
2017-10-17T09:05:52.181Z,195
2017-10-17T09:06:32.623Z,195
2017-10-17T09:07:13.276Z,195
2017-10-17T09:07:53.729Z,195
2017-10-17T09:08:34.203Z,195
2017-10-17T09:09:14.641Z,195
2017-10-17T09:09:55.112Z,195
2017-10-17T09:10:35.561Z,195
2017-10-17T09:11:16.015Z,195
2017-10-17T09:11:56.528Z,195
2017-10-17T09:12:36.977Z,195
2017-10-17T09:13:17.432Z,195
2017-10-17T09:13:57.936Z,195
2017-10-17T09:14:38.367Z,195
2017-10-17T09:15:18.818Z,200
2017-10-17T09:15:59.278Z,195
2017-10-17T09:16:39.726Z,195
2017-10-17T09:17:20.180Z,195
2017-10-17T09:18:00.626Z,200
2017-10-17T09:18:41.081Z,200
2017-10-17T09:19:21.529Z,195
2017-10-17T09:20:01.973Z,195
2017-10-17T09:20:42.428Z,195
2017-10-17T09:21:22.900Z,195
2017-10-17T09:22:03.357Z,200
2017-10-17T09:22:43.798Z,195
2017-10-17T09:23:24.246Z,195
2017-10-17T09:24:04.691Z,190
2017-10-17T09:24:45.151Z,195
2017-10-17T09:25:25.601Z,195
2017-10-17T09:26:06.069Z,195
2017-10-17T09:26:46.527Z,190
2017-10-17T09:27:26.982Z,195
2017-10-17T09:28:07.440Z,200
2017-10-17T09:28:47.885Z,195
2017-10-17T09:29:28.342Z,195
2017-10-17T09:30:08.783Z,195
2017-10-17T09:30:49.266Z,200
2017-10-17T09:31:29.702Z,195
2017-10-17T09:32:10.155Z,195
2017-10-17T09:32:50.612Z,195
2017-10-17T09:33:31.060Z,195
2017-10-17T09:34:11.522Z,195
2017-10-17T09:34:51.988Z,195
2017-10-17T09:35:32.432Z,200
2017-10-17T09:36:12.888Z,195
2017-10-17T09:36:53.360Z,200
2017-10-17T09:37:33.811Z,195
2017-10-17T09:38:14.256Z,200
2017-10-17T09:38:54.707Z,195
2017-10-17T09:39:35.160Z,195
2017-10-17T09:40:15.609Z,195
2017-10-17T09:40:56.069Z,200
2017-10-17T09:41:36.527Z,195
2017-10-17T09:42:16.979Z,190
2017-10-17T09:42:57.450Z,195
2017-10-17T09:43:37.908Z,195
2017-10-17T09:44:18.361Z,195
2017-10-17T09:44:58.815Z,195
2017-10-17T09:45:39.261Z,195
2017-10-17T09:46:19.718Z,190
2017-10-17T09:47:00.156Z,190
2017-10-17T09:47:40.630Z,190
2017-10-17T09:48:21.079Z,190
2017-10-17T09:49:01.528Z,190
2017-10-17T09:49:41.999Z,190
2017-10-17T09:50:22.453Z,195
2017-10-17T09:51:02.902Z,190
2017-10-17T09:51:43.355Z,190
2017-10-17T09:52:23.842Z,190
2017-10-17T09:53:04.282Z,190
2017-10-17T09:53:44.734Z,190